createdAt,value
2019-05-26T03:00:51.483Z,6.50
2019-05-26T03:03:19.726Z,6.40
2019-05-26T03:05:47.954Z,6.50
2019-05-26T03:08:16.558Z,6.50
2019-05-26T03:10:44.786Z,6.40
2019-05-26T03:13:13.523Z,6.40
2019-05-26T03:15:42.811Z,6.40
2019-05-26T03:18:11.028Z,6.40
2019-05-26T03:20:39.908Z,6.30
2019-05-26T03:23:08.276Z,6.20
2019-05-26T03:25:38.283Z,6.20
2019-05-26T03:28:07.248Z,6.10
2019-05-26T03:30:36.136Z,6.10
2019-05-26T03:33:04.716Z,6.10
2019-05-26T03:35:32.979Z,6.10
2019-05-26T03:38:01.213Z,6.10
2019-05-26T03:40:29.412Z,6.00
2019-05-26T03:42:57.650Z,5.90
2019-05-26T03:45:40.544Z,6.00
2019-05-26T03:48:08.766Z,6.00
2019-05-26T03:50:36.981Z,5.90
2019-05-26T03:53:05.200Z,5.90
2019-05-26T03:55:33.438Z,5.90
2019-05-26T03:58:01.661Z,6.00
2019-05-26T04:00:29.873Z,6.00
2019-05-26T04:02:58.133Z,6.00
2019-05-26T04:05:26.420Z,6.00
2019-05-26T04:07:54.628Z,6.00
2019-05-26T04:10:22.844Z,6.00
2019-05-26T04:12:51.057Z,6.00
2019-05-26T04:15:19.299Z,6.10
2019-05-26T04:17:47.504Z,6.10
2019-05-26T04:20:15.724Z,6.20
2019-05-26T04:22:43.951Z,6.10
2019-05-26T04:25:12.167Z,6.20
2019-05-26T04:27:40.462Z,6.20
2019-05-26T04:30:08.740Z,6.20
2019-05-26T04:32:36.970Z,6.20
2019-05-26T04:35:08.095Z,6.20
2019-05-26T04:37:36.303Z,6.40
2019-05-26T04:40:24.982Z,6.50
2019-05-26T04:42:37.587Z,6.70
2019-05-26T04:45:07.904Z,6.90
2019-05-26T04:47:36.123Z,7.00
2019-05-26T04:50:05.301Z,7.10
2019-05-26T04:52:33.522Z,7.00
2019-05-26T04:55:01.758Z,7.10
2019-05-26T04:57:30.034Z,7.10
2019-05-26T04:59:58.260Z,7.00
2019-05-26T05:02:26.481Z,7.20
2019-05-26T05:04:54.692Z,7.20
2019-05-26T05:07:22.907Z,7.20
2019-05-26T05:09:51.145Z,7.30
2019-05-26T05:12:19.377Z,7.30
2019-05-26T05:14:47.613Z,7.40
2019-05-26T05:17:15.819Z,7.50
2019-05-26T05:19:44.047Z,7.60
2019-05-26T05:22:12.282Z,7.70
2019-05-26T05:24:40.484Z,7.70
2019-05-26T05:27:08.710Z,7.80
2019-05-26T05:29:36.919Z,7.90
2019-05-26T05:32:05.413Z,8.00
2019-05-26T05:34:33.628Z,8.10
2019-05-26T05:37:01.983Z,8.20
2019-05-26T05:39:30.211Z,8.30
2019-05-26T05:41:58.435Z,8.40
2019-05-26T05:44:26.715Z,8.50
2019-05-26T05:46:54.938Z,8.60
2019-05-26T05:49:23.163Z,8.70
2019-05-26T05:51:51.398Z,8.80
2019-05-26T05:54:19.630Z,8.90
2019-05-26T05:56:47.867Z,9.00
2019-05-26T05:59:16.066Z,9.10
2019-05-26T06:01:44.315Z,9.20
2019-05-26T06:04:12.519Z,9.30
2019-05-26T06:06:40.744Z,9.40
2019-05-26T06:09:08.961Z,9.40
2019-05-26T06:11:37.198Z,9.50
2019-05-26T06:14:05.430Z,9.60
2019-05-26T06:16:33.681Z,9.70
2019-05-26T06:19:01.876Z,9.80
2019-05-26T06:21:30.095Z,9.90
2019-05-26T06:23:58.333Z,10.10
2019-05-26T06:26:26.569Z,10.20
2019-05-26T06:28:54.792Z,10.30
2019-05-26T06:31:23.015Z,10.50
2019-05-26T06:33:51.249Z,10.60
2019-05-26T06:36:19.476Z,10.70
2019-05-26T06:38:47.760Z,10.90
2019-05-26T06:41:31.867Z,11.00
2019-05-26T06:43:45.967Z,11.10
2019-05-26T06:46:14.222Z,11.10
2019-05-26T06:48:42.440Z,11.20
2019-05-26T06:51:10.650Z,11.30
2019-05-26T06:53:38.898Z,11.30
2019-05-26T06:56:07.124Z,11.40
2019-05-26T06:58:35.344Z,11.60
2019-05-26T07:01:03.722Z,11.70
2019-05-26T07:03:32.024Z,11.70
2019-05-26T07:06:00.255Z,11.90
2019-05-26T07:08:28.489Z,11.90
2019-05-26T07:10:56.717Z,11.90
2019-05-26T07:13:25.193Z,12.10
2019-05-26T07:15:53.477Z,12.10
2019-05-26T07:18:21.738Z,12.20
2019-05-26T07:20:49.969Z,12.40
2019-05-26T07:23:18.251Z,12.60
2019-05-26T07:25:46.492Z,12.40
2019-05-26T07:28:14.731Z,12.60
2019-05-26T07:30:43.934Z,12.50
2019-05-26T07:33:12.198Z,12.60
2019-05-26T07:35:40.486Z,12.70
2019-05-26T07:38:08.732Z,12.70
2019-05-26T07:40:36.958Z,12.70
2019-05-26T07:43:05.208Z,12.90
2019-05-26T07:45:33.503Z,12.80
2019-05-26T07:48:01.782Z,13.30
2019-05-26T07:50:30.007Z,13.70
2019-05-26T07:52:58.262Z,13.70
2019-05-26T07:55:26.492Z,13.50
2019-05-26T07:57:54.706Z,13.30
2019-05-26T08:00:22.928Z,13.60
2019-05-26T08:02:51.151Z,13.60
2019-05-26T08:05:19.378Z,13.70
2019-05-26T08:07:47.592Z,13.80
2019-05-26T08:10:15.814Z,13.40
2019-05-26T08:12:44.028Z,13.10
2019-05-26T08:15:12.281Z,13.10
2019-05-26T08:17:40.484Z,13.10
2019-05-26T08:20:09.000Z,13.30
2019-05-26T08:22:37.289Z,13.20
2019-05-26T08:25:07.373Z,13.60
2019-05-26T08:27:35.601Z,13.40
2019-05-26T08:30:05.469Z,13.80
2019-05-26T08:32:33.704Z,14.30
2019-05-26T08:35:01.928Z,14.10
2019-05-26T08:37:30.156Z,14.00
2019-05-26T08:40:00.034Z,14.40
2019-05-26T08:42:42.098Z,14.00
2019-05-26T08:44:58.231Z,14.40
2019-05-26T08:47:26.459Z,14.10
2019-05-26T08:49:54.680Z,13.90
2019-05-26T08:52:22.914Z,13.90
2019-05-26T08:54:51.147Z,13.80
2019-05-26T08:57:19.364Z,14.00
2019-05-26T08:59:47.594Z,14.20
2019-05-26T09:02:15.814Z,14.10
2019-05-26T09:04:44.049Z,14.80
2019-05-26T09:07:12.263Z,14.90
2019-05-26T09:09:40.479Z,14.20
2019-05-26T09:12:08.726Z,14.40
2019-05-26T09:14:36.972Z,14.70
2019-05-26T09:17:05.193Z,14.30
2019-05-26T09:19:33.428Z,14.60
2019-05-26T09:22:01.653Z,14.70
2019-05-26T09:24:29.854Z,14.30
2019-05-26T09:26:58.083Z,15.00
2019-05-26T09:29:26.300Z,15.50
2019-05-26T09:31:54.581Z,15.20
2019-05-26T09:34:22.936Z,15.50
2019-05-26T09:36:51.174Z,15.70
2019-05-26T09:39:19.406Z,15.50
2019-05-26T09:41:47.632Z,15.80
2019-05-26T09:44:15.874Z,16.30
2019-05-26T09:46:44.190Z,16.50
2019-05-26T09:49:12.425Z,16.20
2019-05-26T09:51:40.644Z,16.70
2019-05-26T09:54:12.036Z,17.10
2019-05-26T09:56:38.820Z,17.40
2019-05-26T09:59:07.064Z,17.20
2019-05-26T10:01:35.271Z,17.10
2019-05-26T10:04:03.514Z,17.10
2019-05-26T10:06:31.739Z,17.20
2019-05-26T10:08:59.982Z,17.30
2019-05-26T10:11:28.217Z,17.60
2019-05-26T10:13:56.439Z,17.10
2019-05-26T10:16:24.673Z,16.70
2019-05-26T10:18:52.883Z,17.00
2019-05-26T10:21:21.095Z,17.20
2019-05-26T10:23:52.917Z,17.50
2019-05-26T10:26:19.261Z,17.70
2019-05-26T10:28:47.507Z,17.70
2019-05-26T10:31:15.735Z,17.10
2019-05-26T10:33:43.982Z,17.40
2019-05-26T10:36:12.203Z,17.50
2019-05-26T10:38:40.436Z,17.60
2019-05-26T10:41:08.653Z,17.70
2019-05-26T10:43:46.832Z,18.00
2019-05-26T10:46:06.835Z,18.20
2019-05-26T10:48:35.056Z,18.30
2019-05-26T10:51:06.660Z,17.60
2019-05-26T10:53:33.262Z,17.70
2019-05-26T10:56:01.480Z,17.80
2019-05-26T10:58:29.726Z,18.10
2019-05-26T11:00:57.935Z,18.10
2019-05-26T11:03:26.181Z,18.40
2019-05-26T11:05:54.406Z,17.50
2019-05-26T11:08:22.639Z,17.70
2019-05-26T11:10:51.146Z,18.50
2019-05-26T11:13:19.367Z,17.50
2019-05-26T11:15:47.615Z,17.80
2019-05-26T11:18:15.842Z,17.70
2019-05-26T11:20:44.094Z,18.30
2019-05-26T11:23:12.303Z,18.20
2019-05-26T11:25:40.799Z,18.00
2019-05-26T11:28:09.019Z,18.70
2019-05-26T11:30:37.244Z,18.30
2019-05-26T11:33:05.458Z,18.40
2019-05-26T11:35:33.691Z,17.80
2019-05-26T11:38:01.982Z,18.60
2019-05-26T11:40:30.238Z,17.90
2019-05-26T11:42:58.444Z,17.80
2019-05-26T11:45:26.675Z,18.10
2019-05-26T11:47:54.909Z,18.50
2019-05-26T11:50:23.142Z,18.50
2019-05-26T11:52:51.373Z,18.70
2019-05-26T11:55:19.593Z,18.80
2019-05-26T11:57:47.804Z,18.50
2019-05-26T12:00:16.883Z,18.20
2019-05-26T12:02:45.910Z,18.20
2019-05-26T12:05:17.448Z,18.00
2019-05-26T12:07:44.071Z,18.40
2019-05-26T12:10:14.358Z,18.20
2019-05-26T12:12:42.886Z,17.90
2019-05-26T12:15:11.298Z,18.50
2019-05-26T12:17:39.507Z,18.20
2019-05-26T12:20:07.736Z,18.30
2019-05-26T12:22:35.971Z,18.00
2019-05-26T12:25:06.038Z,18.20
2019-05-26T12:27:34.268Z,17.90
2019-05-26T12:30:02.770Z,17.90
2019-05-26T12:32:31.013Z,17.80
2019-05-26T12:34:59.232Z,17.50
2019-05-26T12:37:27.462Z,17.30
2019-05-26T12:39:55.672Z,17.20
2019-05-26T12:42:23.904Z,17.50
2019-05-26T12:44:52.133Z,17.60
2019-05-26T12:47:20.365Z,17.80
2019-05-26T12:49:48.571Z,17.60
2019-05-26T12:52:16.818Z,17.30
2019-05-26T12:54:45.043Z,17.60
2019-05-26T12:57:13.289Z,17.50
2019-05-26T12:59:41.501Z,17.40
2019-05-26T13:02:09.742Z,17.30
2019-05-26T13:04:37.982Z,16.90
2019-05-26T13:07:06.219Z,16.90
2019-05-26T13:09:34.426Z,16.70
2019-05-26T13:12:02.654Z,16.80
2019-05-26T13:14:30.880Z,16.80
2019-05-26T13:17:01.486Z,16.90
2019-05-26T13:19:29.074Z,16.90
2019-05-26T13:21:57.314Z,16.80
2019-05-26T13:24:25.527Z,16.90
2019-05-26T13:26:53.844Z,16.60
2019-05-26T13:29:25.463Z,16.50
2019-05-26T13:31:52.035Z,16.40
2019-05-26T13:34:20.267Z,16.30
2019-05-26T13:36:48.558Z,16.30
2019-05-26T13:39:16.823Z,16.30
2019-05-26T13:41:45.052Z,16.30
2019-05-26T13:44:13.288Z,16.40
2019-05-26T13:46:41.506Z,16.30
2019-05-26T13:49:09.738Z,16.50
2019-05-26T13:51:37.969Z,16.50
2019-05-26T13:54:06.282Z,16.60
2019-05-26T13:56:34.494Z,16.60
2019-05-26T13:59:02.726Z,16.60
2019-05-26T14:01:30.951Z,16.80
2019-05-26T14:03:59.248Z,16.70
2019-05-26T14:06:27.486Z,16.60
2019-05-26T14:08:55.736Z,16.50
2019-05-26T14:11:23.966Z,16.60
2019-05-26T14:13:52.209Z,16.40
2019-05-26T14:16:20.511Z,16.30
2019-05-26T14:18:48.747Z,16.20
2019-05-26T14:21:16.959Z,16.30
2019-05-26T14:23:45.189Z,16.10
2019-05-26T14:26:13.402Z,16.00
2019-05-26T14:28:41.646Z,15.90
2019-05-26T14:31:09.869Z,15.90
2019-05-26T14:33:38.127Z,15.90
2019-05-26T14:36:06.338Z,15.80
2019-05-26T14:38:43.243Z,16.00
2019-05-26T14:41:04.537Z,15.80
2019-05-26T14:43:52.182Z,15.90
2019-05-26T14:46:20.419Z,15.90
2019-05-26T14:48:48.670Z,16.10
2019-05-26T14:51:16.924Z,16.20
2019-05-26T14:53:45.187Z,16.20
2019-05-26T14:56:13.420Z,16.20
2019-05-26T14:58:41.655Z,16.20
2019-05-26T15:01:09.868Z,16.30
2019-05-26T15:03:38.095Z,16.40
2019-05-26T15:06:06.498Z,16.50
2019-05-26T15:08:34.831Z,16.60
2019-05-26T15:11:03.040Z,16.70
2019-05-26T15:13:31.281Z,16.70
2019-05-26T15:16:09.376Z,16.80
2019-05-26T15:18:29.494Z,16.70
2019-05-26T15:20:57.745Z,16.60
2019-05-26T15:23:26.038Z,16.50
2019-05-26T15:25:55.029Z,16.50
2019-05-26T15:28:23.290Z,16.30
2019-05-26T15:30:51.519Z,16.30
2019-05-26T15:33:19.749Z,16.30
2019-05-26T15:35:47.970Z,16.30
2019-05-26T15:38:16.179Z,16.20
2019-05-26T15:40:44.427Z,16.40
2019-05-26T15:43:12.639Z,16.30
2019-05-26T15:45:40.886Z,16.20
2019-05-26T15:48:09.113Z,16.20
2019-05-26T15:50:37.330Z,16.20
2019-05-26T15:53:05.566Z,16.10
2019-05-26T15:55:33.787Z,16.10
2019-05-26T15:58:02.026Z,16.20
2019-05-26T16:00:30.266Z,16.10
2019-05-26T16:02:58.504Z,16.20
2019-05-26T16:05:26.743Z,16.20
2019-05-26T16:07:57.047Z,16.30
2019-05-26T16:10:25.448Z,16.30
2019-05-26T16:12:53.726Z,16.30
2019-05-26T16:15:21.962Z,16.30
2019-05-26T16:17:50.191Z,16.30
2019-05-26T16:20:18.406Z,16.30
2019-05-26T16:22:46.643Z,16.30
2019-05-26T16:25:14.878Z,16.30
2019-05-26T16:27:43.106Z,16.30
2019-05-26T16:30:11.377Z,16.30
2019-05-26T16:32:39.590Z,16.30
2019-05-26T16:35:08.007Z,16.20
2019-05-26T16:37:36.230Z,16.30
2019-05-26T16:40:06.103Z,16.60
2019-05-26T16:42:34.332Z,17.00
2019-05-26T16:45:02.644Z,18.50
2019-05-26T16:47:30.870Z,21.30
2019-05-26T16:49:59.118Z,20.90
2019-05-26T16:52:27.346Z,21.20
2019-05-26T16:54:55.587Z,21.30
2019-05-26T16:57:23.858Z,20.40
2019-05-26T16:59:52.118Z,19.50
2019-05-26T17:02:20.357Z,18.90
2019-05-26T17:04:48.662Z,18.60
2019-05-26T17:07:16.897Z,17.90
2019-05-26T17:09:45.185Z,17.90
2019-05-26T17:12:13.485Z,17.70
2019-05-26T17:14:41.714Z,17.60
2019-05-26T17:17:14.859Z,17.40
2019-05-26T17:19:39.875Z,17.30
2019-05-26T17:22:08.100Z,17.00
2019-05-26T17:24:36.318Z,17.10
2019-05-26T17:27:04.566Z,17.10
2019-05-26T17:29:32.782Z,17.00
2019-05-26T17:32:01.028Z,17.20
2019-05-26T17:34:29.231Z,17.40
2019-05-26T17:36:57.454Z,17.60
2019-05-26T17:39:25.689Z,17.40
2019-05-26T17:41:53.926Z,17.30
2019-05-26T17:44:22.144Z,17.30
2019-05-26T17:46:50.386Z,17.20
2019-05-26T17:49:18.618Z,17.00
2019-05-26T17:51:46.853Z,16.90
2019-05-26T17:54:15.062Z,17.00
2019-05-26T17:56:43.321Z,16.80
2019-05-26T17:59:11.614Z,16.90
2019-05-26T18:01:39.836Z,16.60
2019-05-26T18:04:08.071Z,16.50
2019-05-26T18:06:36.295Z,16.50
2019-05-26T18:09:06.701Z,16.50
2019-05-26T18:11:35.236Z,16.40
2019-05-26T18:14:03.479Z,16.40
2019-05-26T18:16:31.691Z,16.20
2019-05-26T18:18:59.913Z,16.20
2019-05-26T18:21:28.156Z,16.20
2019-05-26T18:23:56.385Z,16.20
2019-05-26T18:26:24.614Z,16.00
2019-05-26T18:28:52.854Z,16.10
2019-05-26T18:31:21.067Z,16.10
2019-05-26T18:33:49.316Z,16.10
2019-05-26T18:36:17.542Z,16.10
2019-05-26T18:38:45.782Z,16.10
2019-05-26T18:41:13.991Z,16.00
2019-05-26T18:43:42.224Z,15.90
2019-05-26T18:46:10.456Z,15.90
2019-05-26T18:48:38.691Z,15.80
2019-05-26T18:51:06.931Z,16.00
2019-05-26T18:53:35.177Z,16.00
2019-05-26T18:56:03.412Z,15.80
2019-05-26T18:58:31.626Z,15.70
2019-05-26T19:00:59.842Z,15.70
2019-05-26T19:03:28.086Z,15.70
2019-05-26T19:05:57.183Z,15.70
2019-05-26T19:08:26.062Z,15.60
2019-05-26T19:10:54.367Z,15.60
2019-05-26T19:13:22.599Z,15.60
2019-05-26T19:15:50.802Z,15.60
2019-05-26T19:18:20.559Z,15.60
2019-05-26T19:20:49.043Z,15.60
2019-05-26T19:23:17.339Z,15.50
2019-05-26T19:25:45.569Z,15.60
2019-05-26T19:28:13.828Z,15.50
2019-05-26T19:30:45.479Z,15.40
2019-05-26T19:33:12.025Z,15.40
2019-05-26T19:35:43.885Z,15.40
2019-05-26T19:38:12.723Z,15.20
2019-05-26T19:40:40.949Z,15.30
2019-05-26T19:43:09.159Z,15.20
2019-05-26T19:45:37.410Z,15.30
2019-05-26T19:48:05.623Z,15.30
2019-05-26T19:50:33.848Z,15.30
2019-05-26T19:53:02.066Z,15.20
2019-05-26T19:55:30.282Z,15.20
2019-05-26T19:57:58.514Z,15.40
2019-05-26T20:00:26.830Z,15.10
2019-05-26T20:02:55.058Z,15.10
2019-05-26T20:05:23.289Z,15.00
2019-05-26T20:07:51.551Z,14.90
2019-05-26T20:10:19.794Z,14.80
2019-05-26T20:12:48.458Z,14.70
2019-05-26T20:15:16.757Z,14.70
2019-05-26T20:17:44.986Z,14.60
2019-05-26T20:20:13.943Z,14.60
2019-05-26T20:22:42.226Z,14.40
2019-05-26T20:25:10.482Z,14.40
2019-05-26T20:27:38.782Z,14.30
2019-05-26T20:30:07.130Z,14.30
2019-05-26T20:32:35.370Z,14.20
2019-05-26T20:35:05.634Z,14.50
2019-05-26T20:37:33.852Z,14.60
2019-05-26T20:40:02.115Z,14.50
2019-05-26T20:42:30.343Z,14.30
2019-05-26T20:44:58.942Z,14.50
2019-05-26T20:47:27.202Z,14.30
2019-05-26T20:49:55.527Z,14.30
2019-05-26T20:52:23.798Z,14.20
2019-05-26T20:54:52.016Z,14.10
2019-05-26T20:57:20.241Z,13.80
2019-05-26T20:59:48.472Z,13.70
2019-05-26T21:02:16.710Z,13.50
2019-05-26T21:04:44.942Z,13.40
2019-05-26T21:07:13.186Z,13.40
2019-05-26T21:09:41.417Z,13.70
2019-05-26T21:12:09.638Z,13.40
2019-05-26T21:14:37.851Z,13.10
2019-05-26T21:17:06.090Z,13.40
2019-05-26T21:19:50.627Z,13.30
2019-05-26T21:22:20.414Z,12.90
2019-05-26T21:24:48.985Z,13.00
2019-05-26T21:27:17.303Z,12.70
2019-05-26T21:29:47.750Z,12.50
2019-05-26T21:32:16.044Z,12.50
2019-05-26T21:34:44.256Z,13.00
2019-05-26T21:37:12.550Z,12.70
2019-05-26T21:39:40.781Z,12.90
2019-05-26T21:42:09.020Z,12.50
2019-05-26T21:44:37.227Z,12.60
2019-05-26T21:47:05.475Z,12.40
2019-05-26T21:49:33.699Z,12.50
2019-05-26T21:52:01.945Z,12.50
2019-05-26T21:54:30.170Z,12.50
2019-05-26T21:56:58.411Z,12.40
2019-05-26T21:59:26.646Z,12.30
2019-05-26T22:01:54.854Z,12.30
2019-05-26T22:04:23.079Z,12.30
2019-05-26T22:06:51.323Z,12.90
2019-05-26T22:09:19.622Z,12.70
2019-05-26T22:11:47.830Z,12.20
2019-05-26T22:14:16.073Z,12.40
2019-05-26T22:16:44.305Z,12.60
2019-05-26T22:19:12.543Z,12.90
2019-05-26T22:21:40.814Z,12.40
2019-05-26T22:24:09.097Z,12.10
2019-05-26T22:26:37.365Z,11.90
2019-05-26T22:29:05.597Z,12.30
2019-05-26T22:31:33.817Z,12.40
2019-05-26T22:34:02.059Z,12.20
2019-05-26T22:36:30.286Z,12.20
2019-05-26T22:38:58.517Z,11.90
2019-05-26T22:41:26.727Z,11.80
2019-05-26T22:43:54.966Z,11.70
2019-05-26T22:46:23.190Z,11.90
2019-05-26T22:48:51.438Z,11.80
2019-05-26T22:51:19.647Z,12.10
2019-05-26T22:53:47.875Z,12.20
2019-05-26T22:56:16.098Z,12.30
2019-05-26T22:58:44.323Z,11.90
2019-05-26T23:01:12.562Z,11.70
2019-05-26T23:03:40.783Z,11.80
2019-05-26T23:06:09.098Z,12.60
2019-05-26T23:08:37.366Z,11.80
2019-05-26T23:11:05.579Z,11.80
2019-05-26T23:13:33.814Z,11.60
2019-05-26T23:16:02.033Z,11.90
2019-05-26T23:18:30.244Z,11.70
2019-05-26T23:20:58.487Z,12.00
2019-05-26T23:23:26.727Z,11.90
2019-05-26T23:25:54.934Z,12.10
2019-05-26T23:28:23.166Z,12.00
2019-05-26T23:30:51.418Z,12.40
2019-05-26T23:33:19.634Z,12.40
2019-05-26T23:35:47.884Z,12.40
2019-05-26T23:38:16.087Z,12.20
2019-05-26T23:40:44.350Z,12.20
2019-05-26T23:43:12.562Z,12.60
2019-05-26T23:45:40.786Z,12.50
2019-05-26T23:48:09.018Z,12.90
2019-05-26T23:50:37.241Z,12.50
2019-05-26T23:53:05.454Z,12.80
2019-05-26T23:55:33.701Z,12.40
2019-05-26T23:58:01.913Z,12.40
